createdAt,value
2023-04-23T00:01:42.229Z,3.60
2023-04-23T00:04:18.249Z,2.90
2023-04-23T00:06:48.359Z,2.90
2023-04-23T00:09:24.503Z,3.30
2023-04-23T00:11:53.144Z,3.10
2023-04-23T00:14:21.782Z,3.40
2023-04-23T00:16:50.117Z,2.80
2023-04-23T00:19:21.153Z,2.80
2023-04-23T00:21:49.150Z,3.00
2023-04-23T00:24:18.203Z,2.63
2023-04-23T00:26:47.092Z,2.80
2023-04-23T00:29:14.996Z,3.00
2023-04-23T00:31:43.231Z,2.93
2023-04-23T00:34:11.386Z,2.63
2023-04-23T00:36:40.724Z,3.80
2023-04-23T00:39:11.974Z,3.40
2023-04-23T00:41:46.471Z,2.77
2023-04-23T00:44:14.206Z,3.40
2023-04-23T00:46:43.221Z,3.50
2023-04-23T00:49:15.644Z,3.37
2023-04-23T00:51:47.713Z,3.70
2023-04-23T00:54:18.850Z,3.23
2023-04-23T00:56:49.700Z,2.70
2023-04-23T00:59:17.620Z,3.00
2023-04-23T01:01:45.989Z,2.90
2023-04-23T01:04:14.787Z,3.13
2023-04-23T01:06:44.335Z,4.10
2023-04-23T01:09:14.748Z,3.30
2023-04-23T01:11:46.724Z,2.93
2023-04-23T01:14:15.127Z,3.67
2023-04-23T01:16:44.679Z,3.80
2023-04-23T01:19:16.580Z,3.77
2023-04-23T01:21:45.820Z,3.53
2023-04-23T01:24:14.934Z,4.03
2023-04-23T01:26:43.070Z,2.97
2023-04-23T01:29:13.003Z,3.30
2023-04-23T01:31:41.172Z,3.17
2023-04-23T01:34:09.452Z,3.00
2023-04-23T01:36:37.680Z,3.00
2023-04-23T01:39:06.237Z,2.93
2023-04-23T01:41:36.487Z,2.70
2023-04-23T01:44:05.912Z,2.87
2023-04-23T01:46:35.243Z,3.00
2023-04-23T01:49:03.445Z,2.60
2023-04-23T01:51:31.825Z,2.60
2023-04-23T01:53:59.911Z,3.13
2023-04-23T01:56:30.657Z,2.23
2023-04-23T01:59:02.930Z,2.70
2023-04-23T02:01:43.319Z,1.73
2023-04-23T02:04:12.339Z,2.67
2023-04-23T02:06:53.511Z,2.60
2023-04-23T02:09:25.755Z,2.40
2023-04-23T02:11:58.473Z,2.23
2023-04-23T02:14:27.692Z,1.87
2023-04-23T02:16:55.942Z,1.93
2023-04-23T02:19:26.579Z,2.10
2023-04-23T02:21:55.979Z,1.70
2023-04-23T02:24:23.841Z,2.00
2023-04-23T02:26:52.953Z,1.97
2023-04-23T02:29:26.335Z,2.13
2023-04-23T02:31:58.902Z,2.33
2023-04-23T02:34:26.672Z,2.10
2023-04-23T02:36:54.581Z,2.27
2023-04-23T02:39:22.424Z,1.83
2023-04-23T02:41:54.106Z,2.00
2023-04-23T02:44:21.931Z,2.07
2023-04-23T02:46:50.003Z,1.87
2023-04-23T02:49:20.302Z,2.00
2023-04-23T02:51:48.255Z,2.30
2023-04-23T02:54:16.155Z,2.40
2023-04-23T02:56:48.344Z,2.20
2023-04-23T02:59:16.263Z,2.30
2023-04-23T03:01:44.074Z,2.30
2023-04-23T03:04:12.748Z,2.70
2023-04-23T03:06:46.205Z,2.57
2023-04-23T03:09:17.151Z,2.77
2023-04-23T03:11:46.469Z,2.30
2023-04-23T03:14:16.614Z,3.00
2023-04-23T03:16:44.456Z,2.30
2023-04-23T03:19:14.719Z,2.50
2023-04-23T03:21:49.771Z,2.20
2023-04-23T03:24:19.599Z,2.53
2023-04-23T03:26:50.544Z,2.70
2023-04-23T03:29:31.301Z,2.30
2023-04-23T03:32:00.305Z,1.77
2023-04-23T03:34:27.976Z,2.00
2023-04-23T03:37:03.975Z,1.93
2023-04-23T03:39:32.904Z,1.87
2023-04-23T03:42:03.651Z,2.00
2023-04-23T03:44:32.022Z,1.80
2023-04-23T03:47:01.809Z,2.20
2023-04-23T03:49:32.191Z,2.53
2023-04-23T03:52:01.323Z,2.20
2023-04-23T03:54:29.140Z,1.87
2023-04-23T03:57:06.008Z,1.93
2023-04-23T03:59:33.841Z,1.90
2023-04-23T04:02:04.054Z,1.83
2023-04-23T04:04:37.893Z,1.73
2023-04-23T04:07:08.210Z,1.40
2023-04-23T04:09:46.638Z,2.10
2023-04-23T04:12:17.615Z,1.20
2023-04-23T04:14:45.798Z,1.60
2023-04-23T04:17:15.979Z,1.27
2023-04-23T04:19:49.969Z,1.80
2023-04-23T04:22:19.294Z,1.40
2023-04-23T04:24:47.706Z,1.60
2023-04-23T04:27:18.153Z,1.50
2023-04-23T04:29:48.796Z,1.40
2023-04-23T04:32:17.060Z,1.10
2023-04-23T04:34:47.197Z,0.90
2023-04-23T04:37:15.472Z,1.10
2023-04-23T04:39:48.265Z,1.33
2023-04-23T04:42:19.161Z,1.60
2023-04-23T04:44:47.475Z,1.13
2023-04-23T04:47:17.548Z,0.97
2023-04-23T04:49:45.751Z,1.40
2023-04-23T04:52:17.229Z,1.00
2023-04-23T04:54:46.296Z,1.30
2023-04-23T04:57:15.687Z,1.37
2023-04-23T04:59:53.010Z,1.60
2023-04-23T05:02:23.457Z,2.10
2023-04-23T05:04:52.725Z,1.20
2023-04-23T05:07:20.741Z,1.50
2023-04-23T05:09:49.701Z,1.33
2023-04-23T05:12:24.147Z,1.50
2023-04-23T05:14:54.231Z,1.70
2023-04-23T05:17:22.461Z,1.27
2023-04-23T05:19:50.972Z,1.37
2023-04-23T05:22:19.469Z,0.83
2023-04-23T05:24:47.525Z,1.23
2023-04-23T05:27:15.353Z,1.17
2023-04-23T05:29:47.001Z,1.07
2023-04-23T05:32:15.820Z,1.27
2023-04-23T05:34:47.029Z,1.27
2023-04-23T05:37:14.712Z,1.33
2023-04-23T05:39:43.967Z,1.47
2023-04-23T05:42:13.347Z,1.30
2023-04-23T05:44:54.226Z,1.50
2023-04-23T05:47:22.900Z,1.47
2023-04-23T05:49:50.615Z,1.30
2023-04-23T05:52:25.620Z,1.57
2023-04-23T05:54:55.449Z,1.60
2023-04-23T05:57:23.241Z,1.40
2023-04-23T06:00:05.773Z,1.63
2023-04-23T06:02:36.812Z,1.43
2023-04-23T06:05:06.419Z,1.50
2023-04-23T06:07:34.774Z,1.37
2023-04-23T06:10:02.874Z,1.57
2023-04-23T06:12:31.010Z,1.30
2023-04-23T06:15:03.067Z,1.53
2023-04-23T06:17:30.917Z,1.40
2023-04-23T06:19:58.632Z,1.47
2023-04-23T06:22:27.415Z,1.20
2023-04-23T06:24:59.530Z,1.63
2023-04-23T06:27:27.857Z,1.13
2023-04-23T06:29:57.306Z,1.40
2023-04-23T06:32:30.889Z,1.20
2023-04-23T06:35:02.012Z,1.50
2023-04-23T06:37:32.020Z,1.10
2023-04-23T06:40:03.784Z,1.10
2023-04-23T06:42:34.098Z,1.17
2023-04-23T06:45:06.198Z,1.20
2023-04-23T06:47:39.783Z,1.23
2023-04-23T06:50:12.391Z,1.23
2023-04-23T06:52:44.469Z,1.00
2023-04-23T06:55:12.589Z,1.40
2023-04-23T06:57:43.058Z,1.50
2023-04-23T07:00:15.328Z,1.07
2023-04-23T07:02:44.710Z,1.20
2023-04-23T07:05:12.577Z,1.20
2023-04-23T07:07:43.473Z,1.00
2023-04-23T07:10:12.804Z,1.40
2023-04-23T07:12:44.608Z,1.10
2023-04-23T07:15:19.170Z,1.40
2023-04-23T07:17:48.660Z,1.40
2023-04-23T07:20:16.705Z,1.27
2023-04-23T07:22:46.790Z,1.30
2023-04-23T07:25:15.685Z,1.00
2023-04-23T07:27:43.800Z,1.57
2023-04-23T07:30:12.441Z,1.47
2023-04-23T07:32:40.348Z,1.70
2023-04-23T07:35:11.514Z,1.40
2023-04-23T07:37:42.598Z,1.63
2023-04-23T07:40:11.694Z,1.20
2023-04-23T07:42:39.645Z,1.63
2023-04-23T07:45:08.373Z,1.40
2023-04-23T07:47:36.510Z,1.37
2023-04-23T07:50:04.571Z,1.50
2023-04-23T07:52:37.050Z,1.33
2023-04-23T07:55:07.799Z,1.70
2023-04-23T07:57:38.085Z,1.57
2023-04-23T08:00:09.434Z,1.43
2023-04-23T08:02:37.710Z,1.40
2023-04-23T08:05:06.905Z,1.20
2023-04-23T08:07:37.025Z,1.67
2023-04-23T08:10:09.623Z,1.60
2023-04-23T08:12:40.567Z,1.43
2023-04-23T08:15:09.836Z,1.70
2023-04-23T08:17:38.309Z,1.53
2023-04-23T08:20:07.812Z,1.90
2023-04-23T08:22:41.747Z,1.40
2023-04-23T08:25:10.492Z,1.83
2023-04-23T08:27:46.176Z,1.73
2023-04-23T08:30:14.715Z,1.50
2023-04-23T08:32:44.980Z,2.33
2023-04-23T08:35:17.444Z,1.70
2023-04-23T08:37:46.749Z,2.40
2023-04-23T08:40:14.686Z,2.23
2023-04-23T08:42:44.850Z,2.40
2023-04-23T08:45:14.909Z,1.80
2023-04-23T08:47:44.247Z,2.53
2023-04-23T08:50:13.815Z,2.30
2023-04-23T08:52:43.559Z,2.10
2023-04-23T08:55:14.940Z,1.70
2023-04-23T08:57:43.162Z,2.40
2023-04-23T09:00:14.107Z,2.27
2023-04-23T09:02:43.709Z,4.67
2023-04-23T09:05:14.169Z,3.33
2023-04-23T09:07:42.995Z,3.07
2023-04-23T09:10:17.657Z,2.20
2023-04-23T09:12:48.270Z,1.90
2023-04-23T09:15:16.258Z,2.00
2023-04-23T09:17:46.006Z,2.13
2023-04-23T09:20:15.295Z,3.70
2023-04-23T09:22:46.553Z,2.07
2023-04-23T09:25:18.892Z,2.00
2023-04-23T09:27:47.811Z,1.60
2023-04-23T09:30:17.690Z,1.97
2023-04-23T09:32:46.969Z,2.13
2023-04-23T09:35:16.623Z,1.60
2023-04-23T09:37:48.391Z,1.80
2023-04-23T09:40:20.075Z,1.20
2023-04-23T09:42:49.921Z,1.47
2023-04-23T09:45:18.883Z,1.47
2023-04-23T09:47:54.627Z,1.33
2023-04-23T09:50:35.011Z,2.03
2023-04-23T09:53:03.884Z,1.60
2023-04-23T09:55:38.541Z,1.50
2023-04-23T09:58:13.362Z,1.43
2023-04-23T10:00:41.508Z,1.43
2023-04-23T10:03:11.302Z,1.40
2023-04-23T10:05:59.664Z,1.40
2023-04-23T10:08:33.649Z,1.70
2023-04-23T10:11:19.877Z,1.70
2023-04-23T10:13:51.652Z,1.37
2023-04-23T10:16:28.589Z,1.40
2023-04-23T10:19:05.649Z,1.20
2023-04-23T10:24:12.137Z,1.50
2023-04-23T10:26:44.352Z,1.40
2023-04-23T10:29:18.931Z,1.33
2023-04-23T10:31:47.903Z,1.20
2023-04-23T10:34:17.114Z,1.40
2023-04-23T10:36:53.353Z,1.70
2023-04-23T10:39:29.466Z,1.60
2023-04-23T10:42:01.004Z,1.50
2023-04-23T10:45:04.859Z,1.17
2023-04-23T10:47:38.230Z,1.30
2023-04-23T10:50:20.309Z,1.33
2023-04-23T10:52:55.974Z,1.30
2023-04-23T10:55:25.001Z,0.90
2023-04-23T10:58:02.603Z,2.00
2023-04-23T11:00:46.575Z,1.50
2023-04-23T11:03:39.686Z,1.47
2023-04-23T11:06:12.351Z,1.50
2023-04-23T11:08:52.892Z,1.33
2023-04-23T11:11:43.697Z,1.43
2023-04-23T11:14:15.724Z,1.27
2023-04-23T11:16:43.934Z,1.33
2023-04-23T11:19:13.216Z,1.27
2023-04-23T11:22:01.105Z,1.30
2023-04-23T11:24:30.084Z,1.27
2023-04-23T11:26:58.572Z,1.00
2023-04-23T11:29:30.391Z,0.97
2023-04-23T11:32:03.190Z,1.20
2023-04-23T11:34:32.114Z,0.90
2023-04-23T11:37:02.231Z,1.10
2023-04-23T11:39:30.631Z,1.30
2023-04-23T11:42:06.448Z,1.13
2023-04-23T11:44:38.973Z,1.20
2023-04-23T11:47:55.886Z,0.87
2023-04-23T11:50:25.393Z,1.10
2023-04-23T11:52:53.862Z,1.17
2023-04-23T11:55:24.587Z,0.90
2023-04-23T11:57:53.549Z,1.13
2023-04-23T12:00:27.295Z,1.27
2023-04-23T12:02:56.102Z,1.10
2023-04-23T12:05:28.332Z,1.00
2023-04-23T12:08:07.310Z,1.23
2023-04-23T12:10:35.277Z,0.90
2023-04-23T12:13:06.323Z,1.00
2023-04-23T12:15:46.337Z,1.10
2023-04-23T12:18:14.947Z,1.10
2023-04-23T12:20:48.411Z,1.13
2023-04-23T12:23:17.522Z,0.97
2023-04-23T12:25:46.674Z,1.03
2023-04-23T12:28:14.675Z,1.00
2023-04-23T12:30:49.034Z,1.13
2023-04-23T12:33:19.576Z,1.30
2023-04-23T12:35:55.940Z,1.40
2023-04-23T12:38:25.414Z,2.23
2023-04-23T12:40:53.967Z,1.20
2023-04-23T12:43:22.088Z,1.13
2023-04-23T12:45:53.395Z,1.40
2023-04-23T12:48:23.969Z,1.20
2023-04-23T12:50:51.713Z,1.10
2023-04-23T12:53:19.813Z,1.40
2023-04-23T12:55:48.462Z,1.20
2023-04-23T12:58:16.289Z,0.93
2023-04-23T13:00:44.369Z,1.27
2023-04-23T13:03:19.542Z,1.03
2023-04-23T13:05:50.139Z,1.23
2023-04-23T13:08:17.876Z,1.43
2023-04-23T13:10:45.957Z,1.00
2023-04-23T13:13:13.689Z,1.20
2023-04-23T13:15:41.725Z,1.73
2023-04-23T13:18:11.508Z,1.20
2023-04-23T13:20:41.859Z,1.23
2023-04-23T13:23:11.461Z,1.43
2023-04-23T13:25:48.637Z,1.40
2023-04-23T13:28:16.342Z,0.90
2023-04-23T13:30:49.319Z,1.10
2023-04-23T13:33:17.129Z,1.00
2023-04-23T13:35:49.733Z,0.93
2023-04-23T13:38:20.567Z,1.17
2023-04-23T13:40:48.602Z,1.20
2023-04-23T13:43:18.543Z,1.13
2023-04-23T13:45:46.698Z,1.00
2023-04-23T13:48:17.947Z,1.63
2023-04-23T13:50:47.668Z,1.10
2023-04-23T13:53:18.341Z,1.20
2023-04-23T13:55:46.877Z,1.60
2023-04-23T13:58:20.839Z,1.10
2023-04-23T14:00:51.783Z,1.20
2023-04-23T14:03:20.760Z,1.20
2023-04-23T14:05:51.165Z,0.90
2023-04-23T14:08:21.641Z,1.00
2023-04-23T14:10:49.737Z,1.00
2023-04-23T14:13:18.366Z,0.97
2023-04-23T14:15:49.181Z,0.90
2023-04-23T14:18:19.984Z,0.90
2023-04-23T14:20:49.348Z,1.00
2023-04-23T14:23:50.608Z,1.07
2023-04-23T14:26:46.719Z,1.20
2023-04-23T14:29:21.416Z,0.97
2023-04-23T14:31:53.477Z,1.23
2023-04-23T14:34:24.058Z,0.90
2023-04-23T14:36:56.807Z,1.10
2023-04-23T14:39:25.838Z,1.00
2023-04-23T14:42:06.111Z,1.03
2023-04-23T14:44:33.892Z,1.27
2023-04-23T14:47:01.824Z,1.20
2023-04-23T14:49:30.860Z,1.10
2023-04-23T14:52:01.766Z,1.10
2023-04-23T14:54:31.839Z,1.30
2023-04-23T14:56:59.981Z,1.10
2023-04-23T14:59:27.807Z,1.20
2023-04-23T15:01:56.570Z,1.00
2023-04-23T15:04:26.791Z,1.07
2023-04-23T15:06:54.672Z,1.10
2023-04-23T15:09:27.637Z,0.97
2023-04-23T15:11:58.558Z,1.33
2023-04-23T15:14:27.950Z,1.20
2023-04-23T15:16:58.172Z,1.00
2023-04-23T15:19:27.397Z,1.57
2023-04-23T15:21:55.803Z,1.00
2023-04-23T15:24:26.563Z,1.00
2023-04-23T15:26:55.096Z,1.10
2023-04-23T15:29:24.477Z,1.20
2023-04-23T15:31:58.468Z,1.00
2023-04-23T15:34:26.853Z,1.30
2023-04-23T15:36:56.753Z,1.10
2023-04-23T15:39:29.420Z,1.40
2023-04-23T15:42:00.324Z,1.30
2023-04-23T15:44:28.408Z,1.00
2023-04-23T15:47:03.319Z,1.27
2023-04-23T15:49:32.974Z,1.23
2023-04-23T15:52:00.731Z,1.30
2023-04-23T15:54:30.554Z,1.20
2023-04-23T15:57:02.065Z,2.07
2023-04-23T15:59:29.763Z,1.80
2023-04-23T16:02:00.229Z,1.50
2023-04-23T16:04:28.542Z,1.47
2023-04-23T16:06:59.404Z,1.60
2023-04-23T16:09:27.268Z,1.40
2023-04-23T16:11:56.564Z,1.43
2023-04-23T16:14:24.296Z,1.63
2023-04-23T16:16:52.229Z,1.30
2023-04-23T16:19:20.717Z,0.93
2023-04-23T16:21:48.790Z,1.70
2023-04-23T16:24:18.965Z,1.53
2023-04-23T16:26:47.481Z,1.70
2023-04-23T16:29:22.236Z,1.80
2023-04-23T16:31:53.428Z,1.60
2023-04-23T16:34:23.630Z,1.40
2023-04-23T16:36:56.277Z,1.50
2023-04-23T16:39:24.413Z,1.60
2023-04-23T16:41:54.814Z,1.60
2023-04-23T16:44:24.616Z,1.67
2023-04-23T16:47:01.294Z,1.63
2023-04-23T16:49:29.193Z,1.30
2023-04-23T16:51:57.768Z,2.17
2023-04-23T16:54:25.816Z,2.00
2023-04-23T16:56:53.788Z,1.40
2023-04-23T16:59:22.947Z,1.60
2023-04-23T17:01:52.210Z,1.10
2023-04-23T17:04:25.276Z,1.43
2023-04-23T17:06:56.145Z,1.53
2023-04-23T17:09:26.547Z,1.73
2023-04-23T17:11:57.881Z,1.73
2023-04-23T17:14:29.031Z,1.67
2023-04-23T17:17:00.399Z,1.90
2023-04-23T17:19:28.520Z,1.57
2023-04-23T17:21:56.640Z,1.40
2023-04-23T17:24:24.601Z,1.27
2023-04-23T17:26:54.050Z,1.60
2023-04-23T17:29:22.001Z,1.27
2023-04-23T17:31:51.613Z,2.80
2023-04-23T17:34:19.485Z,1.93
2023-04-23T17:36:47.325Z,1.47
2023-04-23T17:39:19.736Z,2.03
2023-04-23T17:41:47.907Z,1.63
2023-04-23T17:44:15.863Z,1.43
2023-04-23T17:46:43.709Z,1.70
2023-04-23T17:49:15.409Z,1.93
2023-04-23T17:51:45.351Z,1.53
2023-04-23T17:54:18.131Z,1.67
2023-04-23T17:56:45.988Z,1.53
2023-04-23T17:59:13.730Z,1.80
2023-04-23T18:01:41.657Z,1.40
2023-04-23T18:04:09.896Z,1.70
2023-04-23T18:06:39.554Z,1.50
2023-04-23T18:09:09.847Z,1.20
2023-04-23T18:11:40.452Z,1.23
2023-04-23T18:14:11.663Z,1.40
2023-04-23T18:16:43.555Z,1.30
2023-04-23T18:19:13.536Z,1.80
2023-04-23T18:21:46.054Z,1.90
2023-04-23T18:24:15.070Z,1.77
2023-04-23T18:26:42.947Z,2.10
2023-04-23T18:29:10.853Z,1.80
2023-04-23T18:31:38.877Z,1.77
2023-04-23T18:34:11.042Z,1.50
2023-04-23T18:36:39.820Z,1.67
2023-04-23T18:39:11.023Z,1.60
2023-04-23T18:41:39.034Z,2.10
2023-04-23T18:44:06.974Z,1.93
2023-04-23T18:46:34.825Z,1.77
2023-04-23T18:49:08.297Z,1.80
2023-04-23T18:51:39.716Z,1.60
2023-04-23T18:54:09.204Z,1.70
2023-04-23T18:56:36.985Z,1.30
2023-04-23T18:59:04.821Z,1.00
2023-04-23T19:01:35.548Z,1.13
2023-04-23T19:04:03.755Z,1.50
2023-04-23T19:06:34.582Z,1.23
2023-04-23T19:09:02.956Z,0.97
2023-04-23T19:11:35.402Z,1.40
2023-04-23T19:16:33.122Z,1.70
2023-04-23T19:19:03.151Z,1.30
2023-04-23T19:21:32.338Z,0.90
2023-04-23T19:24:05.850Z,1.00
2023-04-23T19:26:40.148Z,1.10
2023-04-23T19:29:09.822Z,0.97
2023-04-23T19:31:37.674Z,1.30
2023-04-23T19:34:05.569Z,0.80
2023-04-23T19:36:36.623Z,0.70
2023-04-23T19:39:07.385Z,1.17
2023-04-23T19:41:36.990Z,1.20
2023-04-23T19:44:05.016Z,1.00
2023-04-23T19:46:33.493Z,1.10
2023-04-23T19:49:01.963Z,1.00
2023-04-23T19:51:32.921Z,0.80
2023-04-23T19:54:04.062Z,1.17
2023-04-23T19:56:32.601Z,1.10
2023-04-23T19:59:02.330Z,1.30
2023-04-23T20:01:32.298Z,0.87
2023-04-23T20:04:07.391Z,1.30
2023-04-23T20:06:35.852Z,1.00
2023-04-23T20:09:08.036Z,1.53
2023-04-23T20:11:36.877Z,0.80
2023-04-23T20:14:09.757Z,1.07
2023-04-23T20:16:38.212Z,0.73
2023-04-23T20:19:10.912Z,0.80
2023-04-23T20:21:41.142Z,0.87
2023-04-23T20:24:09.925Z,1.20
2023-04-23T20:26:41.350Z,0.90
2023-04-23T20:29:11.219Z,0.90
2023-04-23T20:31:39.760Z,0.97
2023-04-23T20:34:07.991Z,1.13
2023-04-23T20:36:38.988Z,0.90
2023-04-23T20:39:11.074Z,1.03
2023-04-23T20:41:41.819Z,0.80
2023-04-23T20:44:12.098Z,0.90
2023-04-23T20:46:45.308Z,0.80
2023-04-23T20:49:16.216Z,0.90
2023-04-23T20:51:48.137Z,0.87
2023-04-23T20:54:20.212Z,0.80
2023-04-23T20:56:53.997Z,0.70
2023-04-23T20:59:24.023Z,1.47
2023-04-23T21:01:52.196Z,0.93
2023-04-23T21:04:21.484Z,1.10
2023-04-23T21:06:52.391Z,1.83
2023-04-23T21:09:20.455Z,0.90
2023-04-23T21:11:48.428Z,0.97
2023-04-23T21:14:16.476Z,0.67
2023-04-23T21:16:46.367Z,0.73
2023-04-23T21:19:16.928Z,0.90
2023-04-23T21:21:46.392Z,0.97
2023-04-23T21:24:14.715Z,0.70
2023-04-23T21:26:42.830Z,0.70
2023-04-23T21:29:10.593Z,0.60
2023-04-23T21:31:44.011Z,0.70
2023-04-23T21:34:22.266Z,0.60
2023-04-23T21:36:50.431Z,0.87
2023-04-23T21:39:18.201Z,0.93
2023-04-23T21:41:47.458Z,0.70
2023-04-23T21:44:18.039Z,0.80
2023-04-23T21:46:46.730Z,1.00
2023-04-23T21:49:17.294Z,0.60
2023-04-23T21:51:45.357Z,0.90
2023-04-23T21:54:13.489Z,1.10
2023-04-23T21:56:42.018Z,1.07
2023-04-23T21:59:11.882Z,0.80
2023-04-23T22:01:40.017Z,0.87
2023-04-23T22:04:08.562Z,0.80
2023-04-23T22:06:38.522Z,0.83
2023-04-23T22:09:06.373Z,0.70
2023-04-23T22:11:36.966Z,1.00
2023-04-23T22:14:07.436Z,0.77
2023-04-23T22:16:35.393Z,1.00
2023-04-23T22:19:05.752Z,1.10
2023-04-23T22:21:34.197Z,0.73
2023-04-23T22:24:03.721Z,0.70
2023-04-23T22:26:33.975Z,0.80
2023-04-23T22:29:04.781Z,0.70
2023-04-23T22:31:33.184Z,0.90
2023-04-23T22:34:02.926Z,1.00
2023-04-23T22:36:34.513Z,1.30
2023-04-23T22:39:04.799Z,0.90
2023-04-23T22:41:33.857Z,1.07
2023-04-23T22:44:04.101Z,1.00
2023-04-23T22:46:35.487Z,0.70
2023-04-23T22:49:04.610Z,1.17
2023-04-23T22:51:33.582Z,1.10
2023-04-23T22:54:01.628Z,0.80
2023-04-23T22:56:32.380Z,1.17
2023-04-23T22:59:00.309Z,0.97
2023-04-23T23:01:31.665Z,1.00
2023-04-23T23:03:59.914Z,1.10
2023-04-23T23:06:28.034Z,1.00
2023-04-23T23:08:56.015Z,0.80
2023-04-23T23:11:28.173Z,1.20
2023-04-23T23:13:57.785Z,1.13
2023-04-23T23:16:30.506Z,1.00
2023-04-23T23:19:00.814Z,1.10
2023-04-23T23:21:29.249Z,1.00
2023-04-23T23:23:57.531Z,0.77
2023-04-23T23:26:25.514Z,1.10
2023-04-23T23:28:56.135Z,0.83
2023-04-23T23:31:28.718Z,1.07
2023-04-23T23:34:01.875Z,1.10
2023-04-23T23:36:29.643Z,1.00
2023-04-23T23:38:57.336Z,2.07
2023-04-23T23:41:26.296Z,1.13
2023-04-23T23:43:54.203Z,1.00
2023-04-23T23:46:22.702Z,1.00
2023-04-23T23:48:53.157Z,1.10
2023-04-23T23:51:21.264Z,1.03
2023-04-23T23:53:51.557Z,0.90
2023-04-23T23:56:21.057Z,1.00
2023-04-23T23:58:51.230Z,1.20
